sensor_id;sensor_type;location;lat;lon;timestamp;temperature;humidity
23507;DHT22;11930;53.076;18.250;2023-06-19T00:00:57;12.40;99.90
23507;DHT22;11930;53.076;18.250;2023-06-19T00:03:40;12.40;99.90
23507;DHT22;11930;53.076;18.250;2023-06-19T00:06:06;12.40;99.90
23507;DHT22;11930;53.076;18.250;2023-06-19T00:08:32;12.40;99.90
23507;DHT22;11930;53.076;18.250;2023-06-19T00:10:59;12.30;99.90
23507;DHT22;11930;53.076;18.250;2023-06-19T00:13:24;12.30;99.90
23507;DHT22;11930;53.076;18.250;2023-06-19T00:15:51;12.30;99.90
23507;DHT22;11930;53.076;18.250;2023-06-19T00:18:16;12.20;99.90
23507;DHT22;11930;53.076;18.250;2023-06-19T00:20:45;12.20;99.90
23507;DHT22;11930;53.076;18.250;2023-06-19T00:23:12;12.20;99.90
23507;DHT22;11930;53.076;18.250;2023-06-19T00:25:40;12.20;99.90
23507;DHT22;11930;53.076;18.250;2023-06-19T00:28:07;12.30;99.90
23507;DHT22;11930;53.076;18.250;2023-06-19T00:30:37;12.30;99.90
23507;DHT22;11930;53.076;18.250;2023-06-19T00:33:05;12.30;99.90
23507;DHT22;11930;53.076;18.250;2023-06-19T00:35:31;12.30;99.90
23507;DHT22;11930;53.076;18.250;2023-06-19T00:37:57;12.30;99.90
23507;DHT22;11930;53.076;18.250;2023-06-19T00:40:28;12.30;99.90
23507;DHT22;11930;53.076;18.250;2023-06-19T00:42:55;14.40;99.90
23507;DHT22;11930;53.076;18.250;2023-06-19T00:45:21;12.20;99.90
23507;DHT22;11930;53.076;18.250;2023-06-19T00:47:50;12.10;99.90
23507;DHT22;11930;53.076;18.250;2023-06-19T00:50:16;12.10;99.90
23507;DHT22;11930;53.076;18.250;2023-06-19T00:52:43;12.10;99.90
23507;DHT22;11930;53.076;18.250;2023-06-19T00:55:09;12.00;99.90
23507;DHT22;11930;53.076;18.250;2023-06-19T00:57:36;12.00;99.90
23507;DHT22;11930;53.076;18.250;2023-06-19T01:00:03;11.90;99.90
23507;DHT22;11930;53.076;18.250;2023-06-19T01:02:34;11.90;99.90
23507;DHT22;11930;53.076;18.250;2023-06-19T01:05:00;11.80;99.90
23507;DHT22;11930;53.076;18.250;2023-06-19T01:10:12;11.90;99.90
23507;DHT22;11930;53.076;18.250;2023-06-19T01:12:44;11.90;99.90
23507;DHT22;11930;53.076;18.250;2023-06-19T01:15:17;11.90;99.90
23507;DHT22;11930;53.076;18.250;2023-06-19T01:17:44;11.90;99.90
23507;DHT22;11930;53.076;18.250;2023-06-19T01:20:12;11.80;99.90
23507;DHT22;11930;53.076;18.250;2023-06-19T01:22:38;11.80;99.90
23507;DHT22;11930;53.076;18.250;2023-06-19T01:25:05;11.70;99.90
23507;DHT22;11930;53.076;18.250;2023-06-19T01:27:31;11.70;99.90
23507;DHT22;11930;53.076;18.250;2023-06-19T01:30:00;11.70;99.90
23507;DHT22;11930;53.076;18.250;2023-06-19T01:35:07;11.70;99.90
23507;DHT22;11930;53.076;18.250;2023-06-19T01:37:37;11.60;99.90
23507;DHT22;11930;53.076;18.250;2023-06-19T01:40:05;11.60;99.90
23507;DHT22;11930;53.076;18.250;2023-06-19T01:42:36;11.60;99.90
23507;DHT22;11930;53.076;18.250;2023-06-19T01:45:03;11.60;99.90
23507;DHT22;11930;53.076;18.250;2023-06-19T01:47:30;11.60;99.90
23507;DHT22;11930;53.076;18.250;2023-06-19T01:49:56;11.60;99.90
23507;DHT22;11930;53.076;18.250;2023-06-19T01:52:23;11.50;99.90
23507;DHT22;11930;53.076;18.250;2023-06-19T01:54:51;11.50;99.90
23507;DHT22;11930;53.076;18.250;2023-06-19T01:57:17;11.50;99.90
23507;DHT22;11930;53.076;18.250;2023-06-19T01:59:44;11.40;99.90
23507;DHT22;11930;53.076;18.250;2023-06-19T02:02:10;11.30;99.90
23507;DHT22;11930;53.076;18.250;2023-06-19T02:04:36;11.40;99.90
23507;DHT22;11930;53.076;18.250;2023-06-19T02:07:03;11.40;99.90
23507;DHT22;11930;53.076;18.250;2023-06-19T02:09:29;11.30;99.90
23507;DHT22;11930;53.076;18.250;2023-06-19T02:11:55;11.30;99.90
23507;DHT22;11930;53.076;18.250;2023-06-19T02:14:21;11.20;99.90
23507;DHT22;11930;53.076;18.250;2023-06-19T02:24:07;11.10;99.90
23507;DHT22;11930;53.076;18.250;2023-06-19T02:26:33;11.20;99.90
23507;DHT22;11930;53.076;18.250;2023-06-19T02:29:00;11.10;99.90
23507;DHT22;11930;53.076;18.250;2023-06-19T02:31:25;11.10;99.90
23507;DHT22;11930;53.076;18.250;2023-06-19T02:36:18;11.00;99.90
23507;DHT22;11930;53.076;18.250;2023-06-19T02:38:46;11.10;99.90
23507;DHT22;11930;53.076;18.250;2023-06-19T02:41:13;11.10;99.90
23507;DHT22;11930;53.076;18.250;2023-06-19T02:43:40;11.10;99.90
23507;DHT22;11930;53.076;18.250;2023-06-19T02:46:06;11.10;99.90
23507;DHT22;11930;53.076;18.250;2023-06-19T02:48:34;11.10;99.90
23507;DHT22;11930;53.076;18.250;2023-06-19T02:51:00;11.20;99.90
23507;DHT22;11930;53.076;18.250;2023-06-19T02:53:26;11.10;99.90
23507;DHT22;11930;53.076;18.250;2023-06-19T03:00:46;11.20;99.90
23507;DHT22;11930;53.076;18.250;2023-06-19T03:03:12;11.20;99.90
23507;DHT22;11930;53.076;18.250;2023-06-19T03:08:05;11.30;99.90
23507;DHT22;11930;53.076;18.250;2023-06-19T03:10:31;11.40;99.90
23507;DHT22;11930;53.076;18.250;2023-06-19T03:17:55;11.60;99.90
23507;DHT22;11930;53.076;18.250;2023-06-19T03:20:23;11.70;99.90
23507;DHT22;11930;53.076;18.250;2023-06-19T03:22:57;11.70;99.90
23507;DHT22;11930;53.076;18.250;2023-06-19T03:25:24;11.80;99.90
23507;DHT22;11930;53.076;18.250;2023-06-19T03:27:52;12.10;99.90
23507;DHT22;11930;53.076;18.250;2023-06-19T03:30:18;12.40;99.90
23507;DHT22;11930;53.076;18.250;2023-06-19T03:32:46;12.70;99.90
23507;DHT22;11930;53.076;18.250;2023-06-19T03:37:53;13.30;99.90
23507;DHT22;11930;53.076;18.250;2023-06-19T03:42:48;15.10;99.90
23507;DHT22;11930;53.076;18.250;2023-06-19T03:45:15;15.80;99.90
23507;DHT22;11930;53.076;18.250;2023-06-19T03:47:41;15.70;99.90
23507;DHT22;11930;53.076;18.250;2023-06-19T03:50:07;16.90;99.90
23507;DHT22;11930;53.076;18.250;2023-06-19T03:52:36;17.60;99.90
23507;DHT22;11930;53.076;18.250;2023-06-19T03:55:03;18.10;99.90
23507;DHT22;11930;53.076;18.250;2023-06-19T03:57:29;18.30;99.90
23507;DHT22;11930;53.076;18.250;2023-06-19T03:59:56;18.80;99.90
23507;DHT22;11930;53.076;18.250;2023-06-19T04:02:22;19.80;99.90
23507;DHT22;11930;53.076;18.250;2023-06-19T04:04:48;20.30;99.90
23507;DHT22;11930;53.076;18.250;2023-06-19T04:07:14;20.30;99.90
23507;DHT22;11930;53.076;18.250;2023-06-19T04:09:41;20.80;99.90
23507;DHT22;11930;53.076;18.250;2023-06-19T04:12:07;21.30;99.90
23507;DHT22;11930;53.076;18.250;2023-06-19T04:14:33;21.30;99.90
23507;DHT22;11930;53.076;18.250;2023-06-19T04:17:00;21.00;99.90
23507;DHT22;11930;53.076;18.250;2023-06-19T04:19:27;20.90;99.90
23507;DHT22;11930;53.076;18.250;2023-06-19T04:21:53;20.70;99.90
23507;DHT22;11930;53.076;18.250;2023-06-19T04:24:20;20.50;99.90
23507;DHT22;11930;53.076;18.250;2023-06-19T04:26:46;20.70;99.90
23507;DHT22;11930;53.076;18.250;2023-06-19T04:29:12;20.70;99.90
23507;DHT22;11930;53.076;18.250;2023-06-19T04:31:45;21.20;99.90
23507;DHT22;11930;53.076;18.250;2023-06-19T04:34:16;22.20;99.90
23507;DHT22;11930;53.076;18.250;2023-06-19T04:36:42;22.30;99.90
23507;DHT22;11930;53.076;18.250;2023-06-19T04:39:09;22.90;99.90
23507;DHT22;11930;53.076;18.250;2023-06-19T04:41:35;23.30;99.90
23507;DHT22;11930;53.076;18.250;2023-06-19T04:44:05;23.80;99.90
23507;DHT22;11930;53.076;18.250;2023-06-19T04:48:58;24.30;99.90
23507;DHT22;11930;53.076;18.250;2023-06-19T04:51:25;24.60;99.90
23507;DHT22;11930;53.076;18.250;2023-06-19T04:53:52;25.40;99.90
23507;DHT22;11930;53.076;18.250;2023-06-19T04:56:18;25.70;99.90
23507;DHT22;11930;53.076;18.250;2023-06-19T04:58:44;25.60;99.90
23507;DHT22;11930;53.076;18.250;2023-06-19T05:01:12;25.90;99.90
23507;DHT22;11930;53.076;18.250;2023-06-19T05:03:43;25.80;99.90
23507;DHT22;11930;53.076;18.250;2023-06-19T05:06:10;25.70;99.70
23507;DHT22;11930;53.076;18.250;2023-06-19T05:11:02;25.80;97.90
23507;DHT22;11930;53.076;18.250;2023-06-19T05:18:24;26.70;96.90
23507;DHT22;11930;53.076;18.250;2023-06-19T05:20:50;27.10;96.30
23507;DHT22;11930;53.076;18.250;2023-06-19T05:23:16;27.30;96.00
23507;DHT22;11930;53.076;18.250;2023-06-19T05:25:42;27.30;96.30
23507;DHT22;11930;53.076;18.250;2023-06-19T05:28:09;27.70;94.20
23507;DHT22;11930;53.076;18.250;2023-06-19T05:30:35;27.60;91.60
23507;DHT22;11930;53.076;18.250;2023-06-19T05:35:28;28.10;92.20
23507;DHT22;11930;53.076;18.250;2023-06-19T05:37:53;28.00;92.00
23507;DHT22;11930;53.076;18.250;2023-06-19T05:40:20;28.30;89.00
23507;DHT22;11930;53.076;18.250;2023-06-19T05:42:45;28.40;81.70
23507;DHT22;11930;53.076;18.250;2023-06-19T05:45:12;28.20;79.40
23507;DHT22;11930;53.076;18.250;2023-06-19T05:47:37;28.10;80.00
23507;DHT22;11930;53.076;18.250;2023-06-19T05:50:04;27.80;87.40
23507;DHT22;11930;53.076;18.250;2023-06-19T05:52:30;27.70;86.40
23507;DHT22;11930;53.076;18.250;2023-06-19T05:54:56;27.70;83.20
23507;DHT22;11930;53.076;18.250;2023-06-19T05:57:24;27.80;86.90
23507;DHT22;11930;53.076;18.250;2023-06-19T05:59:50;28.10;90.00
23507;DHT22;11930;53.076;18.250;2023-06-19T06:02:20;28.30;86.80
23507;DHT22;11930;53.076;18.250;2023-06-19T06:04:46;28.30;86.70
23507;DHT22;11930;53.076;18.250;2023-06-19T06:07:12;28.40;87.30
23507;DHT22;11930;53.076;18.250;2023-06-19T06:09:39;28.50;88.30
23507;DHT22;11930;53.076;18.250;2023-06-19T06:12:05;28.40;86.00
23507;DHT22;11930;53.076;18.250;2023-06-19T06:14:32;28.30;86.50
23507;DHT22;11930;53.076;18.250;2023-06-19T06:16:57;28.10;86.50
23507;DHT22;11930;53.076;18.250;2023-06-19T06:19:23;28.10;91.00
23507;DHT22;11930;53.076;18.250;2023-06-19T06:21:50;27.80;86.90
23507;DHT22;11930;53.076;18.250;2023-06-19T06:24:16;27.20;92.50
23507;DHT22;11930;53.076;18.250;2023-06-19T06:26:42;27.00;93.70
23507;DHT22;11930;53.076;18.250;2023-06-19T06:29:08;26.90;93.30
23507;DHT22;11930;53.076;18.250;2023-06-19T06:31:38;26.80;94.10
23507;DHT22;11930;53.076;18.250;2023-06-19T06:38:58;25.10;99.90
23507;DHT22;11930;53.076;18.250;2023-06-19T06:41:23;24.60;99.90
23507;DHT22;11930;53.076;18.250;2023-06-19T06:46:16;24.10;99.90
23507;DHT22;11930;53.076;18.250;2023-06-19T06:48:42;24.00;99.90
23507;DHT22;11930;53.076;18.250;2023-06-19T06:51:08;24.10;99.90
23507;DHT22;11930;53.076;18.250;2023-06-19T06:53:36;24.20;99.90
23507;DHT22;11930;53.076;18.250;2023-06-19T06:56:02;24.60;99.90
23507;DHT22;11930;53.076;18.250;2023-06-19T06:58:29;24.90;99.90
23507;DHT22;11930;53.076;18.250;2023-06-19T07:00:55;25.20;99.90
23507;DHT22;11930;53.076;18.250;2023-06-19T07:08:15;26.10;99.90
23507;DHT22;11930;53.076;18.250;2023-06-19T07:18:00;26.90;96.20
23507;DHT22;11930;53.076;18.250;2023-06-19T07:22:53;27.20;90.40
23507;DHT22;11930;53.076;18.250;2023-06-19T07:25:20;27.30;92.70
23507;DHT22;11930;53.076;18.250;2023-06-19T07:27:46;27.50;84.60
23507;DHT22;11930;53.076;18.250;2023-06-19T07:30:12;27.60;81.10
23507;DHT22;11930;53.076;18.250;2023-06-19T07:32:38;27.60;75.90
23507;DHT22;11930;53.076;18.250;2023-06-19T07:35:05;27.60;76.80
23507;DHT22;11930;53.076;18.250;2023-06-19T07:37:31;27.40;75.50
23507;DHT22;11930;53.076;18.250;2023-06-19T07:39:57;27.30;82.20
23507;DHT22;11930;53.076;18.250;2023-06-19T07:42:23;27.40;83.00
23507;DHT22;11930;53.076;18.250;2023-06-19T07:47:16;27.70;76.70
23507;DHT22;11930;53.076;18.250;2023-06-19T07:54:59;27.50;72.70
23507;DHT22;11930;53.076;18.250;2023-06-19T07:57:26;28.30;80.00
23507;DHT22;11930;53.076;18.250;2023-06-19T07:59:53;27.80;76.10
23507;DHT22;11930;53.076;18.250;2023-06-19T08:02:21;28.00;72.00
23507;DHT22;11930;53.076;18.250;2023-06-19T08:04:47;28.10;77.00
23507;DHT22;11930;53.076;18.250;2023-06-19T08:07:13;28.30;72.50
23507;DHT22;11930;53.076;18.250;2023-06-19T08:09:39;27.90;69.40
23507;DHT22;11930;53.076;18.250;2023-06-19T08:12:06;28.90;70.10
23507;DHT22;11930;53.076;18.250;2023-06-19T08:14:32;29.20;64.50
23507;DHT22;11930;53.076;18.250;2023-06-19T08:19:24;29.50;64.40
23507;DHT22;11930;53.076;18.250;2023-06-19T08:26:44;29.30;61.10
23507;DHT22;11930;53.076;18.250;2023-06-19T08:29:10;29.00;60.10
23507;DHT22;11930;53.076;18.250;2023-06-19T08:31:36;28.70;63.00
23507;DHT22;11930;53.076;18.250;2023-06-19T08:34:02;28.30;64.30
23507;DHT22;11930;53.076;18.250;2023-06-19T08:36:33;28.40;66.30
23507;DHT22;11930;53.076;18.250;2023-06-19T08:38:59;28.30;63.70
23507;DHT22;11930;53.076;18.250;2023-06-19T08:43:51;28.70;64.60
23507;DHT22;11930;53.076;18.250;2023-06-19T08:46:18;28.70;57.10
23507;DHT22;11930;53.076;18.250;2023-06-19T08:48:46;28.70;58.30
23507;DHT22;11930;53.076;18.250;2023-06-19T08:51:12;28.60;56.70
23507;DHT22;11930;53.076;18.250;2023-06-19T08:53:53;28.50;60.90
23507;DHT22;11930;53.076;18.250;2023-06-19T08:56:20;28.40;62.20
23507;DHT22;11930;53.076;18.250;2023-06-19T09:01:17;28.40;59.90
23507;DHT22;11930;53.076;18.250;2023-06-19T09:03:43;28.60;59.80
23507;DHT22;11930;53.076;18.250;2023-06-19T09:06:15;28.70;58.50
23507;DHT22;11930;53.076;18.250;2023-06-19T09:08:41;28.70;58.30
23507;DHT22;11930;53.076;18.250;2023-06-19T09:18:47;28.30;59.10
23507;DHT22;11930;53.076;18.250;2023-06-19T09:21:20;28.20;62.00
23507;DHT22;11930;53.076;18.250;2023-06-19T09:28:46;28.10;62.70
23507;DHT22;11930;53.076;18.250;2023-06-19T09:33:40;28.10;60.50
23507;DHT22;11930;53.076;18.250;2023-06-19T09:36:06;28.10;59.90
23507;DHT22;11930;53.076;18.250;2023-06-19T09:38:37;27.90;59.20
23507;DHT22;11930;53.076;18.250;2023-06-19T09:43:42;27.30;60.70
23507;DHT22;11930;53.076;18.250;2023-06-19T09:46:10;27.10;64.30
23507;DHT22;11930;53.076;18.250;2023-06-19T09:48:41;27.00;62.50
23507;DHT22;11930;53.076;18.250;2023-06-19T09:51:18;26.90;59.90
23507;DHT22;11930;53.076;18.250;2023-06-19T09:53:48;26.80;62.20
23507;DHT22;11930;53.076;18.250;2023-06-19T09:56:16;26.50;61.90
23507;DHT22;11930;53.076;18.250;2023-06-19T09:58:44;26.30;63.20
23507;DHT22;11930;53.076;18.250;2023-06-19T10:01:11;26.30;60.60
23507;DHT22;11930;53.076;18.250;2023-06-19T10:03:39;26.20;59.40
23507;DHT22;11930;53.076;18.250;2023-06-19T10:08:40;26.10;58.90
23507;DHT22;11930;53.076;18.250;2023-06-19T10:13:40;26.10;62.60
23507;DHT22;11930;53.076;18.250;2023-06-19T10:18:54;26.20;62.40
23507;DHT22;11930;53.076;18.250;2023-06-19T10:21:21;26.20;64.40
23507;DHT22;11930;53.076;18.250;2023-06-19T10:23:55;26.10;63.90
23507;DHT22;11930;53.076;18.250;2023-06-19T10:26:33;26.10;64.70
23507;DHT22;11930;53.076;18.250;2023-06-19T10:29:00;26.30;64.00
23507;DHT22;11930;53.076;18.250;2023-06-19T10:33:54;26.30;60.80
23507;DHT22;11930;53.076;18.250;2023-06-19T10:36:22;26.20;62.80
23507;DHT22;11930;53.076;18.250;2023-06-19T10:41:24;26.10;63.30
23507;DHT22;11930;53.076;18.250;2023-06-19T10:46:28;25.90;63.60
23507;DHT22;11930;53.076;18.250;2023-06-19T10:51:28;25.90;61.00
23507;DHT22;11930;53.076;18.250;2023-06-19T10:53:55;26.00;60.80
23507;DHT22;11930;53.076;18.250;2023-06-19T10:56:23;26.00;61.00
23507;DHT22;11930;53.076;18.250;2023-06-19T10:59:00;26.10;60.50
23507;DHT22;11930;53.076;18.250;2023-06-19T11:01:34;26.30;61.20
23507;DHT22;11930;53.076;18.250;2023-06-19T11:04:03;26.30;60.20
23507;DHT22;11930;53.076;18.250;2023-06-19T11:06:30;26.40;62.70
23507;DHT22;11930;53.076;18.250;2023-06-19T11:08:56;26.70;60.80
23507;DHT22;11930;53.076;18.250;2023-06-19T11:11:22;26.70;60.10
23507;DHT22;11930;53.076;18.250;2023-06-19T11:13:48;27.20;62.30
23507;DHT22;11930;53.076;18.250;2023-06-19T11:16:14;27.20;62.50
23507;DHT22;11930;53.076;18.250;2023-06-19T11:18:40;27.80;61.40
23507;DHT22;11930;53.076;18.250;2023-06-19T11:21:07;28.00;59.80
23507;DHT22;11930;53.076;18.250;2023-06-19T11:23:32;28.00;59.60
23507;DHT22;11930;53.076;18.250;2023-06-19T11:26:03;28.20;59.10
23507;DHT22;11930;53.076;18.250;2023-06-19T11:31:00;28.50;57.80
23507;DHT22;11930;53.076;18.250;2023-06-19T11:36:00;28.40;56.80
23507;DHT22;11930;53.076;18.250;2023-06-19T11:38:26;28.20;58.10
23507;DHT22;11930;53.076;18.250;2023-06-19T11:40:54;28.00;58.50
23507;DHT22;11930;53.076;18.250;2023-06-19T11:45:53;27.00;56.90
23507;DHT22;11930;53.076;18.250;2023-06-19T11:48:23;26.70;58.90
23507;DHT22;11930;53.076;18.250;2023-06-19T11:50:51;26.40;59.10
23507;DHT22;11930;53.076;18.250;2023-06-19T11:53:21;26.20;59.00
23507;DHT22;11930;53.076;18.250;2023-06-19T11:55:48;26.10;60.50
23507;DHT22;11930;53.076;18.250;2023-06-19T12:00:42;26.30;59.80
23507;DHT22;11930;53.076;18.250;2023-06-19T12:05:36;26.60;61.30
23507;DHT22;11930;53.076;18.250;2023-06-19T12:08:03;26.80;59.00
23507;DHT22;11930;53.076;18.250;2023-06-19T12:10:33;26.90;61.40
23507;DHT22;11930;53.076;18.250;2023-06-19T12:20:19;26.80;58.90
23507;DHT22;11930;53.076;18.250;2023-06-19T12:25:12;26.60;60.70
23507;DHT22;11930;53.076;18.250;2023-06-19T12:27:38;26.70;62.60
23507;DHT22;11930;53.076;18.250;2023-06-19T12:30:05;26.80;62.50
23507;DHT22;11930;53.076;18.250;2023-06-19T12:34:58;26.90;58.90
23507;DHT22;11930;53.076;18.250;2023-06-19T12:37:24;27.00;58.00
23507;DHT22;11930;53.076;18.250;2023-06-19T12:39:50;26.80;58.00
23507;DHT22;11930;53.076;18.250;2023-06-19T12:42:16;26.60;59.60
23507;DHT22;11930;53.076;18.250;2023-06-19T12:44:43;26.50;58.20
23507;DHT22;11930;53.076;18.250;2023-06-19T12:47:12;26.30;61.50
23507;DHT22;11930;53.076;18.250;2023-06-19T12:49:39;26.40;61.80
23507;DHT22;11930;53.076;18.250;2023-06-19T12:52:05;26.50;61.40
23507;DHT22;11930;53.076;18.250;2023-06-19T12:54:31;26.50;59.00
23507;DHT22;11930;53.076;18.250;2023-06-19T12:56:57;26.50;58.10
23507;DHT22;11930;53.076;18.250;2023-06-19T13:06:43;26.60;59.20
23507;DHT22;11930;53.076;18.250;2023-06-19T13:09:09;26.70;58.20
23507;DHT22;11930;53.076;18.250;2023-06-19T13:11:35;26.60;57.50
23507;DHT22;11930;53.076;18.250;2023-06-19T13:23:49;26.80;58.40
23507;DHT22;11930;53.076;18.250;2023-06-19T13:26:15;26.90;58.20
23507;DHT22;11930;53.076;18.250;2023-06-19T13:28:41;27.00;59.60
23507;DHT22;11930;53.076;18.250;2023-06-19T13:31:07;27.10;59.30
23507;DHT22;11930;53.076;18.250;2023-06-19T13:33:33;27.10;58.40
23507;DHT22;11930;53.076;18.250;2023-06-19T13:40:52;27.10;58.50
23507;DHT22;11930;53.076;18.250;2023-06-19T13:43:18;27.20;59.30
23507;DHT22;11930;53.076;18.250;2023-06-19T13:55:31;27.10;58.20
23507;DHT22;11930;53.076;18.250;2023-06-19T14:05:16;27.30;59.20
23507;DHT22;11930;53.076;18.250;2023-06-19T14:12:36;27.60;54.70
23507;DHT22;11930;53.076;18.250;2023-06-19T14:32:08;27.90;54.70
23507;DHT22;11930;53.076;18.250;2023-06-19T14:34:34;28.00;55.20
23507;DHT22;11930;53.076;18.250;2023-06-19T14:46:46;27.80;51.90
23507;DHT22;11930;53.076;18.250;2023-06-19T14:56:33;27.50;53.80
23507;DHT22;11930;53.076;18.250;2023-06-19T14:58:59;27.50;54.50
23507;DHT22;11930;53.076;18.250;2023-06-19T15:06:19;27.50;53.90
23507;DHT22;11930;53.076;18.250;2023-06-19T15:18:33;27.50;57.40
23507;DHT22;11930;53.076;18.250;2023-06-19T15:28:19;27.50;54.80
23507;DHT22;11930;53.076;18.250;2023-06-19T15:30:45;27.60;55.10
23507;DHT22;11930;53.076;18.250;2023-06-19T16:00:03;27.50;55.10
23507;DHT22;11930;53.076;18.250;2023-06-19T16:07:32;27.10;55.50
23507;DHT22;11930;53.076;18.250;2023-06-19T16:27:07;26.70;56.00
23507;DHT22;11930;53.076;18.250;2023-06-19T16:29:33;26.80;56.40
23507;DHT22;11930;53.076;18.250;2023-06-19T16:49:08;26.50;59.00
23507;DHT22;11930;53.076;18.250;2023-06-19T16:51:34;26.40;58.00
23507;DHT22;11930;53.076;18.250;2023-06-19T16:54:00;26.30;57.80
23507;DHT22;11930;53.076;18.250;2023-06-19T16:58:53;26.40;59.10
23507;DHT22;11930;53.076;18.250;2023-06-19T17:25:43;26.10;58.00
23507;DHT22;11930;53.076;18.250;2023-06-19T17:33:09;25.70;61.30
23507;DHT22;11930;53.076;18.250;2023-06-19T17:35:35;25.60;62.00
23507;DHT22;11930;53.076;18.250;2023-06-19T17:38:01;25.60;61.50
23507;DHT22;11930;53.076;18.250;2023-06-19T17:40:27;25.30;61.80
23507;DHT22;11930;53.076;18.250;2023-06-19T17:42:53;25.10;63.20
23507;DHT22;11930;53.076;18.250;2023-06-19T17:45:19;25.20;63.20
23507;DHT22;11930;53.076;18.250;2023-06-19T17:52:39;25.00;66.50
23507;DHT22;11930;53.076;18.250;2023-06-19T17:55:11;24.90;68.50
23507;DHT22;11930;53.076;18.250;2023-06-19T18:00:04;24.80;68.20
23507;DHT22;11930;53.076;18.250;2023-06-19T18:02:37;24.80;68.20
23507;DHT22;11930;53.076;18.250;2023-06-19T18:05:04;24.80;68.40
23507;DHT22;11930;53.076;18.250;2023-06-19T18:09:56;24.70;69.20
23507;DHT22;11930;53.076;18.250;2023-06-19T18:14:49;24.70;67.80
23507;DHT22;11930;53.076;18.250;2023-06-19T18:19:41;24.60;69.20
23507;DHT22;11930;53.076;18.250;2023-06-19T18:22:08;24.50;71.40
23507;DHT22;11930;53.076;18.250;2023-06-19T18:27:00;24.40;78.80
23507;DHT22;11930;53.076;18.250;2023-06-19T18:29:26;24.30;79.90
23507;DHT22;11930;53.076;18.250;2023-06-19T18:31:56;24.10;81.50
23507;DHT22;11930;53.076;18.250;2023-06-19T18:36:50;23.90;91.10
23507;DHT22;11930;53.076;18.250;2023-06-19T18:41:42;23.70;95.00
23507;DHT22;11930;53.076;18.250;2023-06-19T18:44:08;23.50;97.10
23507;DHT22;11930;53.076;18.250;2023-06-19T18:49:01;23.30;99.90
23507;DHT22;11930;53.076;18.250;2023-06-19T18:53:57;23.10;99.90
23507;DHT22;11930;53.076;18.250;2023-06-19T18:56:23;22.90;99.90
23507;DHT22;11930;53.076;18.250;2023-06-19T19:01:15;22.80;99.90
23507;DHT22;11930;53.076;18.250;2023-06-19T19:06:08;22.60;99.90
23507;DHT22;11930;53.076;18.250;2023-06-19T19:08:36;22.60;99.90
23507;DHT22;11930;53.076;18.250;2023-06-19T19:11:02;22.60;99.90
23507;DHT22;11930;53.076;18.250;2023-06-19T19:18:21;22.50;99.90
23507;DHT22;11930;53.076;18.250;2023-06-19T19:20:48;22.50;99.90
23507;DHT22;11930;53.076;18.250;2023-06-19T19:30:41;22.40;99.90
23507;DHT22;11930;53.076;18.250;2023-06-19T19:33:07;22.40;99.90
23507;DHT22;11930;53.076;18.250;2023-06-19T19:35:33;22.40;99.90
23507;DHT22;11930;53.076;18.250;2023-06-19T19:40:26;22.20;99.90
23507;DHT22;11930;53.076;18.250;2023-06-19T19:45:18;22.10;99.90
23507;DHT22;11930;53.076;18.250;2023-06-19T19:50:11;21.90;99.90
23507;DHT22;11930;53.076;18.250;2023-06-19T19:52:37;21.90;99.90
23507;DHT22;11930;53.076;18.250;2023-06-19T19:55:04;21.80;99.90
23507;DHT22;11930;53.076;18.250;2023-06-19T19:57:30;21.80;99.90
23507;DHT22;11930;53.076;18.250;2023-06-19T20:04:50;21.50;99.90
23507;DHT22;11930;53.076;18.250;2023-06-19T20:07:17;21.50;99.90
23507;DHT22;11930;53.076;18.250;2023-06-19T20:09:43;21.40;99.90
23507;DHT22;11930;53.076;18.250;2023-06-19T20:14:36;21.30;99.90
23507;DHT22;11930;53.076;18.250;2023-06-19T20:17:03;21.30;99.90
23507;DHT22;11930;53.076;18.250;2023-06-19T20:19:29;21.20;99.90
23507;DHT22;11930;53.076;18.250;2023-06-19T20:21:55;21.30;99.90
23507;DHT22;11930;53.076;18.250;2023-06-19T20:24:21;21.20;99.90
23507;DHT22;11930;53.076;18.250;2023-06-19T20:31:44;21.20;99.90
23507;DHT22;11930;53.076;18.250;2023-06-19T20:34:11;21.10;99.90
23507;DHT22;11930;53.076;18.250;2023-06-19T20:36:36;21.10;99.90
23507;DHT22;11930;53.076;18.250;2023-06-19T20:39:03;21.00;99.90
23507;DHT22;11930;53.076;18.250;2023-06-19T20:41:31;21.00;99.90
23507;DHT22;11930;53.076;18.250;2023-06-19T20:43:57;20.90;99.90
23507;DHT22;11930;53.076;18.250;2023-06-19T20:51:18;20.80;99.90
23507;DHT22;11930;53.076;18.250;2023-06-19T20:53:47;20.80;99.90
23507;DHT22;11930;53.076;18.250;2023-06-19T20:58:41;20.70;99.90
23507;DHT22;11930;53.076;18.250;2023-06-19T21:15:57;20.50;99.90
23507;DHT22;11930;53.076;18.250;2023-06-19T21:18:23;20.40;99.90
23507;DHT22;11930;53.076;18.250;2023-06-19T21:25:46;20.40;99.90
23507;DHT22;11930;53.076;18.250;2023-06-19T21:28:12;20.30;99.90
23507;DHT22;11930;53.076;18.250;2023-06-19T21:30:38;20.30;99.90
23507;DHT22;11930;53.076;18.250;2023-06-19T21:33:07;20.30;99.90
23507;DHT22;11930;53.076;18.250;2023-06-19T21:40:30;20.20;99.90
23507;DHT22;11930;53.076;18.250;2023-06-19T21:45:23;20.10;99.90
23507;DHT22;11930;53.076;18.250;2023-06-19T21:47:50;20.10;99.90
23507;DHT22;11930;53.076;18.250;2023-06-19T21:50:16;20.10;99.90
23507;DHT22;11930;53.076;18.250;2023-06-19T21:52:45;20.00;99.90
23507;DHT22;11930;53.076;18.250;2023-06-19T21:55:11;20.00;99.90
23507;DHT22;11930;53.076;18.250;2023-06-19T21:57:37;20.00;99.90
23507;DHT22;11930;53.076;18.250;2023-06-19T22:00:06;19.90;99.90
23507;DHT22;11930;53.076;18.250;2023-06-19T22:02:38;19.90;99.90
23507;DHT22;11930;53.076;18.250;2023-06-19T22:05:07;20.00;99.90
23507;DHT22;11930;53.076;18.250;2023-06-19T22:07:34;20.00;99.90
23507;DHT22;11930;53.076;18.250;2023-06-19T22:10:03;20.00;99.90
23507;DHT22;11930;53.076;18.250;2023-06-19T22:12:34;19.90;99.90
23507;DHT22;11930;53.076;18.250;2023-06-19T22:15:01;20.00;99.90
23507;DHT22;11930;53.076;18.250;2023-06-19T22:17:27;20.00;99.90
23507;DHT22;11930;53.076;18.250;2023-06-19T22:19:53;20.00;99.90
23507;DHT22;11930;53.076;18.250;2023-06-19T22:22:19;20.00;99.90
23507;DHT22;11930;53.076;18.250;2023-06-19T22:24:45;20.00;99.90
23507;DHT22;11930;53.076;18.250;2023-06-19T22:27:11;19.90;99.90
23507;DHT22;11930;53.076;18.250;2023-06-19T22:29:38;19.90;99.90
23507;DHT22;11930;53.076;18.250;2023-06-19T22:32:04;19.90;99.90
23507;DHT22;11930;53.076;18.250;2023-06-19T22:34:30;20.00;99.90
23507;DHT22;11930;53.076;18.250;2023-06-19T22:36:56;19.90;99.90